Terminal Aerodrome Forecast
Issued by NWS Milwaukee/Sullivan, WI

Home | Current Version | Previous Version | Text Only | Print | Product List | Glossary On
Versions: 1 2 3 4 5 6 7 8 9 10 11 12 13 14 15 16 17 18 19 20 21 22 23 24 25
000
FTUS43 KMKX 272349
TAFMSN
TAF
KMSN 272349Z 2800/2824 VRB03KT P6SM BKN250
     FM280300 32004KT P6SM -SHRA BKN070
     FM280500 33004KT P6SM VCSH BKN070
     FM280900 00000KT 6SM -SHRA BR OVC060
     FM281100 00000KT 4SM -SHRA BR OVC025
     FM281500 35004KT P6SM OVC035
     FM281800 29005KT P6SM BKN050
     FM282100 27008KT P6SM SCT050=

USA.gov is the U.S. government's official web portal to all federal, state and local government web resources and services.